Terminal Aerodrome Forecast
Issued by NWS

Home | Current Version | Previous Version | Text Only | Print | Product List | Glossary On
Versions: 1 2 3 4 5 6 7 8 9 10 11 12 13 14 15 16 17 18 19 20
000
FTUS41 KPBZ 190500
TAFFKL
TAF
KFKL 190525Z 1906/2006 02003KT 4SM BR SCT060
     FM190800 04002KT 2SM BR SCT060
     FM190900 05002KT 1/2SM FG BKN001
     FM191200 06003KT 2SM BR FEW002
     FM191300 14006KT P6SM SKC
      AMD LTD TO CLD VIS AND WIND=

USA.gov is the U.S. government's official web portal to all federal, state and local government web resources and services.